createdAt,value
2019-02-23T00:02:26.247Z,100133.61
2019-02-23T00:06:31.954Z,100136.74
2019-02-23T00:10:37.710Z,100137.09
2019-02-23T00:14:43.472Z,100149.45
2019-02-23T00:18:49.258Z,100154.03
2019-02-23T00:22:54.951Z,100159.37
2019-02-23T00:27:00.714Z,100165.47
2019-02-23T00:31:06.468Z,100160.77
2019-02-23T00:35:12.205Z,100154.55
2019-02-23T00:39:17.916Z,100157.53
2019-02-23T00:43:23.614Z,100162.41
2019-02-23T00:47:30.390Z,100160.67
2019-02-23T00:51:36.069Z,100162.81
2019-02-23T00:55:41.768Z,100154.94
2019-02-23T00:59:47.459Z,100158.09
2019-02-23T01:03:53.168Z,100151.16
2019-02-23T01:07:58.871Z,100147.82
2019-02-23T01:12:04.558Z,100143.81
2019-02-23T01:16:10.324Z,100145.91
2019-02-23T01:20:16.089Z,100147.41
2019-02-23T01:24:21.853Z,100139.20
2019-02-23T01:28:29.293Z,100148.92
2019-02-23T01:32:34.992Z,100142.13
2019-02-23T01:36:40.690Z,100143.44
2019-02-23T01:40:46.594Z,100144.89
2019-02-23T01:44:52.407Z,100144.74
2019-02-23T01:48:58.112Z,100143.29
2019-02-23T01:53:03.813Z,100134.05
2019-02-23T01:57:09.556Z,100138.84
2019-02-23T02:01:15.322Z,100136.09
2019-02-23T02:05:21.166Z,100132.95
2019-02-23T02:09:27.012Z,100134.30
2019-02-23T02:13:32.882Z,100138.23
2019-02-23T02:17:38.743Z,100139.16
2019-02-23T02:21:44.693Z,100146.00
2019-02-23T02:25:50.480Z,100148.87
2019-02-23T02:29:57.345Z,100158.32
2019-02-23T02:34:12.863Z,100166.80
2019-02-23T02:38:18.579Z,100164.03
2019-02-23T02:42:24.265Z,100158.94
2019-02-23T02:46:29.933Z,100155.36
2019-02-23T02:50:35.643Z,100161.40
2019-02-23T02:54:41.343Z,100164.61
2019-02-23T02:58:47.034Z,100164.92
2019-02-23T03:02:52.726Z,100172.55
2019-02-23T03:06:58.420Z,100176.39
2019-02-23T03:11:04.117Z,100166.22
2019-02-23T03:15:10.120Z,100173.45
2019-02-23T03:19:15.806Z,100181.59
2019-02-23T03:23:21.534Z,100174.37
2019-02-23T03:27:27.198Z,100168.83
2019-02-23T03:31:33.030Z,100161.40
2019-02-23T03:35:38.763Z,100168.52
2019-02-23T03:39:44.557Z,100179.94
2019-02-23T03:43:50.207Z,100185.59
2019-02-23T03:47:55.885Z,100180.39
2019-02-23T03:52:01.580Z,100182.30
2019-02-23T03:56:07.366Z,100189.22
2019-02-23T04:00:13.273Z,100187.16
2019-02-23T04:04:18.933Z,100189.66
2019-02-23T04:08:24.651Z,100176.17
2019-02-23T04:12:30.405Z,100183.66
2019-02-23T04:16:36.186Z,100186.14
2019-02-23T04:20:41.871Z,100185.36
2019-02-23T04:24:47.684Z,100184.75
2019-02-23T04:28:53.382Z,100192.23
2019-02-23T04:32:59.067Z,100190.72
2019-02-23T04:37:04.766Z,100184.01
2019-02-23T04:41:11.117Z,100176.81
2019-02-23T04:45:16.800Z,100185.73
2019-02-23T04:49:25.653Z,100178.37
2019-02-23T04:53:29.876Z,100159.66
2019-02-23T04:57:35.629Z,100143.70
2019-02-23T05:01:41.383Z,100148.67
2019-02-23T05:05:47.303Z,100145.79
2019-02-23T05:09:52.994Z,100153.33
2019-02-23T05:13:58.689Z,100155.39
2019-02-23T05:18:04.473Z,100152.73
2019-02-23T05:22:10.173Z,100153.18
2019-02-23T05:26:15.925Z,100145.84
2019-02-23T05:30:21.619Z,100137.26
2019-02-23T05:34:27.319Z,100131.00
2019-02-23T05:38:33.001Z,100127.23
2019-02-23T05:42:39.728Z,100129.52
2019-02-23T05:46:45.536Z,100143.92
2019-02-23T05:50:51.278Z,100151.55
2019-02-23T05:54:57.144Z,100141.95
2019-02-23T05:59:03.796Z,100145.56
2019-02-23T06:03:09.504Z,100130.26
2019-02-23T06:07:15.204Z,100128.87
2019-02-23T06:11:20.909Z,100134.31
2019-02-23T06:15:26.588Z,100136.27
2019-02-23T06:19:32.281Z,100149.52
2019-02-23T06:23:37.957Z,100141.63
2019-02-23T06:27:43.733Z,100136.88
2019-02-23T06:31:49.515Z,100139.70
2019-02-23T06:35:55.210Z,100136.72
2019-02-23T06:40:00.909Z,100132.48
2019-02-23T06:44:06.591Z,100144.27
2019-02-23T06:48:12.300Z,100155.23
2019-02-23T06:52:17.988Z,100156.08
2019-02-23T06:56:23.770Z,100163.26
2019-02-23T07:00:29.529Z,100160.61
2019-02-23T07:04:35.209Z,100168.70
2019-02-23T07:08:40.911Z,100168.31
2019-02-23T07:12:46.607Z,100170.32
2019-02-23T07:16:52.357Z,100176.06
2019-02-23T07:20:58.094Z,100190.07
2019-02-23T07:25:04.736Z,100196.29
2019-02-23T07:29:10.426Z,100194.62
2019-02-23T07:33:20.136Z,100191.09
2019-02-23T07:37:23.526Z,100184.09
2019-02-23T07:41:29.212Z,100176.45
2019-02-23T07:45:34.911Z,100181.91
2019-02-23T07:49:40.602Z,100180.81
2019-02-23T07:53:46.386Z,100189.74
2019-02-23T07:57:52.158Z,100185.36
2019-02-23T08:01:57.884Z,100183.36
2019-02-23T08:06:03.552Z,100171.53
2019-02-23T08:10:12.322Z,100168.31
2019-02-23T08:14:18.026Z,100166.95
2019-02-23T08:18:23.738Z,100166.75
2019-02-23T08:22:37.026Z,100163.59
2019-02-23T08:26:37.819Z,100160.80
2019-02-23T08:30:44.483Z,100164.17
2019-02-23T08:34:50.259Z,100162.55
2019-02-23T08:38:57.026Z,100170.42
2019-02-23T08:43:02.736Z,100171.84
2019-02-23T08:47:08.445Z,100176.01
2019-02-23T08:51:14.158Z,100175.45
2019-02-23T08:55:19.927Z,100190.70
2019-02-23T08:59:25.637Z,100176.23
2019-02-23T09:03:31.357Z,100181.62
2019-02-23T09:07:37.069Z,100196.44
2019-02-23T09:11:42.799Z,100188.56
2019-02-23T09:15:50.689Z,100193.57
2019-02-23T09:19:56.305Z,100202.59
2019-02-23T09:24:02.018Z,100211.66
2019-02-23T09:28:07.728Z,100214.97
2019-02-23T09:32:13.427Z,100231.75
2019-02-23T09:36:19.138Z,100214.27
2019-02-23T09:40:24.834Z,100201.33
2019-02-23T09:44:30.517Z,100200.41
2019-02-23T09:48:36.233Z,100198.52
2019-02-23T09:52:41.939Z,100190.54
2019-02-23T09:56:47.727Z,100189.61
2019-02-23T10:00:55.163Z,100188.16
2019-02-23T10:05:00.786Z,100189.73
2019-02-23T10:09:07.708Z,100195.52
2019-02-23T10:13:15.097Z,100183.41
2019-02-23T10:17:20.780Z,100190.08
2019-02-23T10:21:26.541Z,100194.97
2019-02-23T10:25:32.445Z,100195.55
2019-02-23T10:29:39.317Z,100186.69
2019-02-23T10:33:47.657Z,100195.33
2019-02-23T10:37:52.435Z,100195.30
2019-02-23T10:41:58.132Z,100205.61
2019-02-23T10:46:03.848Z,100204.11
2019-02-23T10:50:12.387Z,100220.87
2019-02-23T10:54:18.139Z,100233.81
2019-02-23T10:58:24.813Z,100227.75
2019-02-23T11:02:30.592Z,100224.78
2019-02-23T11:06:38.424Z,100224.91
2019-02-23T11:10:43.853Z,100200.80
2019-02-23T11:14:49.598Z,100191.56
2019-02-23T11:18:55.309Z,100178.52
2019-02-23T11:23:01.350Z,100155.64
2019-02-23T11:27:07.636Z,100154.77
2019-02-23T11:31:13.413Z,100150.73
2019-02-23T11:35:19.122Z,100122.71
2019-02-23T11:39:24.820Z,100123.90
2019-02-23T11:43:30.522Z,100118.55
2019-02-23T11:47:36.225Z,100133.33
2019-02-23T11:51:41.931Z,100131.20
2019-02-23T11:55:47.695Z,100119.09
2019-02-23T11:59:53.466Z,100118.38
2019-02-23T12:03:59.173Z,100110.58
2019-02-23T12:08:04.884Z,100116.92
2019-02-23T12:12:10.579Z,100114.73
2019-02-23T12:16:16.294Z,100116.66
2019-02-23T12:20:22.032Z,100117.26
2019-02-23T12:24:27.724Z,100112.56
2019-02-23T12:28:33.483Z,100103.52
2019-02-23T12:32:39.178Z,100096.34
2019-02-23T12:36:45.939Z,100099.55
2019-02-23T12:40:51.643Z,100091.76
2019-02-23T12:44:57.353Z,100082.21
2019-02-23T12:49:03.049Z,100078.30
2019-02-23T12:53:08.746Z,100078.83
2019-02-23T12:57:14.432Z,100067.94
2019-02-23T13:01:20.131Z,100051.23
2019-02-23T13:05:25.842Z,100040.54
2019-02-23T13:09:33.446Z,100035.70
2019-02-23T13:13:49.152Z,100025.45
2019-02-23T13:18:44.119Z,100030.36
2019-02-23T13:23:10.650Z,100030.20
2019-02-23T13:27:35.805Z,100025.99
2019-02-23T13:31:46.101Z,100034.88
2019-02-23T13:36:28.022Z,100023.47
2019-02-23T13:41:13.367Z,100025.49
2019-02-23T13:45:38.288Z,100022.11
2019-02-23T13:50:12.673Z,100016.77
2019-02-23T13:54:48.043Z,100014.34
2019-02-23T13:59:06.517Z,100009.13
2019-02-23T14:03:36.607Z,100008.63
2019-02-23T14:07:48.728Z,99999.14
2019-02-23T14:12:40.218Z,99994.23
2019-02-23T14:17:07.997Z,99999.92
2019-02-23T14:21:44.055Z,99992.19
2019-02-23T14:26:09.470Z,99988.70
2019-02-23T14:30:57.589Z,99982.52
2019-02-23T14:35:20.096Z,99986.57
2019-02-23T14:39:57.224Z,99989.43
2019-02-23T14:44:37.226Z,99986.35
2019-02-23T14:49:34.262Z,99982.98
2019-02-23T14:53:56.506Z,99978.87
2019-02-23T14:58:38.301Z,99971.84
2019-02-23T15:02:51.358Z,99971.95
2019-02-23T15:07:16.651Z,99972.78
2019-02-23T15:11:35.704Z,99975.28
2019-02-23T15:16:24.373Z,99980.20
2019-02-23T15:20:55.403Z,99979.81
2019-02-23T15:25:33.792Z,99986.55
2019-02-23T15:30:00.330Z,99984.41
2019-02-23T15:34:23.841Z,99989.67
2019-02-23T15:39:16.890Z,99991.69
2019-02-23T15:43:39.080Z,99989.53
2019-02-23T15:48:06.876Z,99993.67
2019-02-23T15:52:12.721Z,99992.19
2019-02-23T15:56:18.490Z,99993.38
2019-02-23T16:00:24.198Z,100001.23
2019-02-23T16:04:29.877Z,99986.97
2019-02-23T16:08:35.581Z,99995.60
2019-02-23T16:12:42.326Z,99990.34
2019-02-23T16:16:48.044Z,99993.86
2019-02-23T16:20:53.867Z,99985.08
2019-02-23T16:25:01.189Z,99988.42
2019-02-23T16:29:07.019Z,99997.80
2019-02-23T16:33:12.772Z,99999.16
2019-02-23T16:37:18.514Z,100005.03
2019-02-23T16:41:24.252Z,100008.33
2019-02-23T16:45:29.939Z,100012.83
2019-02-23T16:49:35.656Z,100024.88
2019-02-23T16:53:41.361Z,100027.39
2019-02-23T16:57:47.075Z,100018.98
2019-02-23T17:01:52.760Z,100023.08
2019-02-23T17:05:59.809Z,100025.03
2019-02-23T17:10:07.360Z,100031.85
2019-02-23T17:14:13.046Z,100032.44
2019-02-23T17:18:18.747Z,100045.44
2019-02-23T17:22:25.408Z,100051.65
2019-02-23T17:26:31.097Z,100051.42
2019-02-23T17:30:36.804Z,100052.77
2019-02-23T17:34:42.519Z,100054.48
2019-02-23T17:38:48.227Z,100061.70
2019-02-23T17:42:53.923Z,100065.30
2019-02-23T17:46:59.635Z,100077.09
2019-02-23T17:51:05.350Z,100086.34
2019-02-23T17:55:11.043Z,100091.94
2019-02-23T17:59:16.789Z,100087.28
2019-02-23T18:03:22.768Z,100087.14
2019-02-23T18:07:28.523Z,100102.92
2019-02-23T18:11:34.232Z,100099.80
2019-02-23T18:15:40.024Z,100100.95
2019-02-23T18:19:45.708Z,100108.14
2019-02-23T18:23:51.496Z,100110.87
2019-02-23T18:27:57.221Z,100114.66
2019-02-23T18:37:08.406Z,100125.17
2019-02-23T18:41:14.175Z,100115.45
2019-02-23T18:45:19.943Z,100118.01
2019-02-23T18:49:25.748Z,100117.26
2019-02-23T18:53:31.577Z,100122.78
2019-02-23T18:57:37.302Z,100126.65
2019-02-23T19:01:43.009Z,100117.34
2019-02-23T19:05:50.100Z,100116.65
2019-02-23T19:09:56.876Z,100120.95
2019-02-23T19:14:02.627Z,100118.83
2019-02-23T19:18:20.424Z,100126.09
2019-02-23T19:22:26.140Z,100126.09
2019-02-23T19:26:38.247Z,100130.31
2019-02-23T19:30:40.370Z,100116.08
2019-02-23T19:34:46.159Z,100117.63
2019-02-23T19:38:51.919Z,100121.95
2019-02-23T19:42:57.652Z,100123.70
2019-02-23T19:47:03.554Z,100122.37
2019-02-23T19:51:10.170Z,100119.16
2019-02-23T19:55:17.593Z,100122.61
2019-02-23T19:59:23.294Z,100120.52
2019-02-23T20:03:29.044Z,100114.05
2019-02-23T20:07:34.739Z,100123.73
2019-02-23T20:11:40.464Z,100138.38
2019-02-23T20:15:46.340Z,100131.92
2019-02-23T20:36:19.094Z,100122.77
2019-02-23T20:41:15.905Z,100122.67
2019-02-23T20:45:21.721Z,100135.72
2019-02-23T20:50:18.263Z,100139.45
2019-02-23T20:54:24.022Z,100138.32
2019-02-23T20:59:17.802Z,100139.77
2019-02-23T21:03:23.501Z,100140.57
2019-02-23T21:08:17.472Z,100137.14
2019-02-23T21:12:23.290Z,100124.14
2019-02-23T21:17:17.142Z,100115.68
2019-02-23T21:21:22.845Z,100124.23
2019-02-23T21:26:16.856Z,100122.68
2019-02-23T21:30:22.541Z,100126.03
2019-02-23T21:39:58.930Z,100111.64
2019-02-23T21:44:19.490Z,100115.18
2019-02-23T21:48:25.225Z,100103.41
2019-02-23T21:52:30.929Z,100092.75
2019-02-23T21:56:36.645Z,100094.07
2019-02-23T22:00:42.361Z,100085.23
2019-02-23T22:04:48.061Z,100089.44
2019-02-23T22:08:53.822Z,100103.78
2019-02-23T22:12:59.557Z,100098.31
2019-02-23T22:17:05.293Z,100104.08
2019-02-23T22:21:10.995Z,100112.02
2019-02-23T22:25:16.700Z,100108.72
2019-02-23T22:29:22.393Z,100112.35
2019-02-23T22:33:28.181Z,100101.13
2019-02-23T22:37:33.902Z,100110.83
2019-02-23T22:41:39.566Z,100104.08
2019-02-23T22:45:45.278Z,100109.37
2019-02-23T22:49:50.986Z,100108.92
2019-02-23T22:53:56.690Z,100101.13
2019-02-23T22:58:02.420Z,100098.22
2019-02-23T23:02:08.189Z,100104.99
2019-02-23T23:06:13.934Z,100101.27
2019-02-23T23:10:19.689Z,100106.66
2019-02-23T23:14:25.368Z,100101.20
2019-02-23T23:18:32.032Z,100106.48
2019-02-23T23:22:37.716Z,100107.91
2019-02-23T23:26:43.484Z,100102.73
2019-02-23T23:30:49.191Z,100099.59
2019-02-23T23:34:54.957Z,100094.96
2019-02-23T23:39:00.695Z,100100.16
2019-02-23T23:43:08.004Z,100108.91
2019-02-23T23:47:13.722Z,100110.95
2019-02-23T23:51:19.405Z,100114.89
2019-02-23T23:55:25.097Z,100111.47
2019-02-23T23:59:30.779Z,100105.77
